sensor_id;sensor_type;location;lat;lon;timestamp;pressure;altitude;pressure_sealevel;temperature;humidity
10460;BME280;54412;51.206;6.888;2023-05-03T00:00:21;102067.16;;;9.88;56.69
10460;BME280;54412;51.206;6.888;2023-05-03T00:02:47;102069.72;;;9.91;56.49
10460;BME280;54412;51.206;6.888;2023-05-03T00:05:13;102065.06;;;9.67;57.02
10460;BME280;54412;51.206;6.888;2023-05-03T00:07:43;102067.56;;;9.73;57.12
10460;BME280;54412;51.206;6.888;2023-05-03T00:10:11;102063.31;;;9.66;56.78
10460;BME280;54412;51.206;6.888;2023-05-03T00:12:43;102056.38;;;9.64;56.84
10460;BME280;54412;51.206;6.888;2023-05-03T00:15:10;102049.47;;;9.58;57.07
10460;BME280;54412;51.206;6.888;2023-05-03T00:17:36;102055.97;;;9.79;56.37
10460;BME280;54412;51.206;6.888;2023-05-03T00:20:03;102053.59;;;9.68;56.80
10460;BME280;54412;51.206;6.888;2023-05-03T00:22:30;102054.47;;;9.69;56.98
10460;BME280;54412;51.206;6.888;2023-05-03T00:24:58;102057.25;;;9.63;57.24
10460;BME280;54412;51.206;6.888;2023-05-03T00:27:24;102050.13;;;9.68;56.95
10460;BME280;54412;51.206;6.888;2023-05-03T00:29:50;102055.78;;;9.51;56.96
10460;BME280;54412;51.206;6.888;2023-05-03T00:32:20;102053.19;;;9.49;57.40
10460;BME280;54412;51.206;6.888;2023-05-03T00:34:54;102050.69;;;9.43;57.79
10460;BME280;54412;51.206;6.888;2023-05-03T00:37:21;102051.13;;;9.61;57.00
10460;BME280;54412;51.206;6.888;2023-05-03T00:39:46;102062.56;;;9.61;57.20
10460;BME280;54412;51.206;6.888;2023-05-03T00:42:12;102050.59;;;9.46;57.72
10460;BME280;54412;51.206;6.888;2023-05-03T00:44:38;102072.41;;;9.53;57.52
10460;BME280;54412;51.206;6.888;2023-05-03T00:47:03;102065.72;;;9.77;57.36
10460;BME280;54412;51.206;6.888;2023-05-03T00:49:29;102071.34;;;9.62;57.33
10460;BME280;54412;51.206;6.888;2023-05-03T00:51:55;102060.72;;;9.65;57.07
10460;BME280;54412;51.206;6.888;2023-05-03T00:54:26;102061.66;;;9.62;57.44
10460;BME280;54412;51.206;6.888;2023-05-03T00:56:52;102059.28;;;9.52;57.50
10460;BME280;54412;51.206;6.888;2023-05-03T00:59:19;102064.56;;;9.52;57.41
10460;BME280;54412;51.206;6.888;2023-05-03T01:01:51;102061.78;;;9.18;58.51
10460;BME280;54412;51.206;6.888;2023-05-03T01:04:18;102058.16;;;9.23;58.42
10460;BME280;54412;51.206;6.888;2023-05-03T01:07:05;102055.63;;;9.19;58.42
10460;BME280;54412;51.206;6.888;2023-05-03T01:09:51;102057.22;;;9.26;58.46
10460;BME280;54412;51.206;6.888;2023-05-03T01:12:54;102055.75;;;9.13;59.09
10460;BME280;54412;51.206;6.888;2023-05-03T01:15:33;102058.06;;;9.26;58.22
10460;BME280;54412;51.206;6.888;2023-05-03T01:18:10;102060.94;;;9.17;58.48
10460;BME280;54412;51.206;6.888;2023-05-03T01:20:41;102048.81;;;9.09;58.38
10460;BME280;54412;51.206;6.888;2023-05-03T01:23:39;102060.22;;;9.09;58.44
10460;BME280;54412;51.206;6.888;2023-05-03T01:26:27;102060.78;;;9.23;57.98
10460;BME280;54412;51.206;6.888;2023-05-03T01:28:53;102058.59;;;9.04;58.59
10460;BME280;54412;51.206;6.888;2023-05-03T01:31:39;102061.13;;;9.08;58.15
10460;BME280;54412;51.206;6.888;2023-05-03T01:34:17;102055.22;;;8.97;58.69
10460;BME280;54412;51.206;6.888;2023-05-03T01:36:48;102057.78;;;9.00;58.41
10460;BME280;54412;51.206;6.888;2023-05-03T01:39:39;102057.13;;;8.89;58.48
10460;BME280;54412;51.206;6.888;2023-05-03T01:42:07;102059.69;;;8.94;58.55
10460;BME280;54412;51.206;6.888;2023-05-03T01:44:35;102069.31;;;8.95;58.50
10460;BME280;54412;51.206;6.888;2023-05-03T01:47:01;102072.88;;;8.91;58.54
10460;BME280;54412;51.206;6.888;2023-05-03T01:49:27;102073.03;;;8.85;58.76
10460;BME280;54412;51.206;6.888;2023-05-03T01:51:53;102069.63;;;8.78;59.22
10460;BME280;54412;51.206;6.888;2023-05-03T01:54:18;102057.78;;;9.00;58.22
10460;BME280;54412;51.206;6.888;2023-05-03T01:56:45;102071.56;;;9.13;57.95
10460;BME280;54412;51.206;6.888;2023-05-03T01:59:11;102071.28;;;8.84;58.54
10460;BME280;54412;51.206;6.888;2023-05-03T02:01:37;102074.59;;;8.93;58.58
10460;BME280;54412;51.206;6.888;2023-05-03T02:04:02;102070.97;;;8.99;58.36
10460;BME280;54412;51.206;6.888;2023-05-03T02:06:28;102081.63;;;8.93;57.97
10460;BME280;54412;51.206;6.888;2023-05-03T02:08:53;102073.63;;;8.99;57.96
10460;BME280;54412;51.206;6.888;2023-05-03T02:11:20;102076.47;;;8.88;57.56
10460;BME280;54412;51.206;6.888;2023-05-03T02:13:48;102076.72;;;8.75;58.20
10460;BME280;54412;51.206;6.888;2023-05-03T02:16:18;102079.91;;;8.92;57.69
10460;BME280;54412;51.206;6.888;2023-05-03T02:18:44;102081.22;;;8.70;58.33
10460;BME280;54412;51.206;6.888;2023-05-03T02:21:10;102085.09;;;8.95;57.68
10460;BME280;54412;51.206;6.888;2023-05-03T02:23:36;102084.56;;;8.76;58.23
10460;BME280;54412;51.206;6.888;2023-05-03T02:26:02;102093.13;;;8.87;57.97
10460;BME280;54412;51.206;6.888;2023-05-03T02:28:27;102089.63;;;8.88;58.10
10460;BME280;54412;51.206;6.888;2023-05-03T02:38:14;102102.88;;;8.82;58.06
10460;BME280;54412;51.206;6.888;2023-05-03T02:40:41;102104.25;;;9.01;56.98
10460;BME280;54412;51.206;6.888;2023-05-03T02:43:06;102107.19;;;8.86;57.70
10460;BME280;54412;51.206;6.888;2023-05-03T02:45:34;102101.72;;;8.97;57.63
10460;BME280;54412;51.206;6.888;2023-05-03T02:48:01;102108.44;;;9.11;57.38
10460;BME280;54412;51.206;6.888;2023-05-03T02:50:27;102102.06;;;8.79;58.46
10460;BME280;54412;51.206;6.888;2023-05-03T02:52:52;102102.34;;;8.65;58.71
10460;BME280;54412;51.206;6.888;2023-05-03T02:55:18;102093.50;;;8.69;58.08
10460;BME280;54412;51.206;6.888;2023-05-03T02:57:43;102101.16;;;8.81;57.74
10460;BME280;54412;51.206;6.888;2023-05-03T03:00:10;102092.38;;;8.82;57.76
10460;BME280;54412;51.206;6.888;2023-05-03T03:02:39;102092.66;;;8.67;58.23
10460;BME280;54412;51.206;6.888;2023-05-03T03:05:06;102097.06;;;8.67;58.08
10460;BME280;54412;51.206;6.888;2023-05-03T03:07:33;102097.94;;;8.66;58.05
10460;BME280;54412;51.206;6.888;2023-05-03T03:09:59;102091.63;;;8.76;57.82
10460;BME280;54412;51.206;6.888;2023-05-03T03:12:25;102086.59;;;8.62;58.14
10460;BME280;54412;51.206;6.888;2023-05-03T03:14:53;102077.09;;;8.55;58.24
10460;BME280;54412;51.206;6.888;2023-05-03T03:17:19;102078.97;;;8.50;58.51
10460;BME280;54412;51.206;6.888;2023-05-03T03:19:45;102073.13;;;8.34;58.95
10460;BME280;54412;51.206;6.888;2023-05-03T03:22:10;102073.66;;;8.52;58.37
10460;BME280;54412;51.206;6.888;2023-05-03T03:24:36;102060.00;;;8.31;58.94
10460;BME280;54412;51.206;6.888;2023-05-03T03:27:02;102062.44;;;8.42;58.85
10460;BME280;54412;51.206;6.888;2023-05-03T03:29:31;102059.03;;;8.37;58.99
10460;BME280;54412;51.206;6.888;2023-05-03T03:31:57;102056.00;;;8.58;58.55
10460;BME280;54412;51.206;6.888;2023-05-03T03:34:22;102058.81;;;8.49;59.07
10460;BME280;54412;51.206;6.888;2023-05-03T03:36:48;102053.72;;;8.41;58.64
10460;BME280;54412;51.206;6.888;2023-05-03T03:39:14;102057.03;;;8.50;58.88
10460;BME280;54412;51.206;6.888;2023-05-03T03:41:39;102053.75;;;8.40;59.06
10460;BME280;54412;51.206;6.888;2023-05-03T03:44:05;102056.19;;;8.48;59.27
10460;BME280;54412;51.206;6.888;2023-05-03T03:46:31;102047.31;;;8.55;58.84
10460;BME280;54412;51.206;6.888;2023-05-03T03:48:57;102045.69;;;8.48;59.16
10460;BME280;54412;51.206;6.888;2023-05-03T03:51:22;102059.25;;;8.72;58.42
10460;BME280;54412;51.206;6.888;2023-05-03T03:53:48;102052.41;;;8.62;58.30
10460;BME280;54412;51.206;6.888;2023-05-03T03:56:14;102044.66;;;8.55;58.45
10460;BME280;54412;51.206;6.888;2023-05-03T03:58:39;102049.69;;;8.68;58.33
10460;BME280;54412;51.206;6.888;2023-05-03T04:01:05;102042.88;;;8.57;58.72
10460;BME280;54412;51.206;6.888;2023-05-03T04:03:31;102045.22;;;8.72;58.19
10460;BME280;54412;51.206;6.888;2023-05-03T04:05:57;102035.28;;;8.86;57.93
10460;BME280;54412;51.206;6.888;2023-05-03T04:08:23;102037.88;;;8.87;57.93
10460;BME280;54412;51.206;6.888;2023-05-03T04:10:49;102031.66;;;8.91;57.91
10460;BME280;54412;51.206;6.888;2023-05-03T04:13:15;102020.22;;;8.92;57.49
10460;BME280;54412;51.206;6.888;2023-05-03T04:15:41;102024.56;;;8.95;57.46
10460;BME280;54412;51.206;6.888;2023-05-03T04:18:06;102021.94;;;8.95;57.72
10460;BME280;54412;51.206;6.888;2023-05-03T04:20:33;102023.88;;;8.85;57.53
10460;BME280;54412;51.206;6.888;2023-05-03T04:22:59;102020.63;;;8.74;57.82
10460;BME280;54412;51.206;6.888;2023-05-03T04:25:25;102017.97;;;8.76;57.86
10460;BME280;54412;51.206;6.888;2023-05-03T04:27:51;102024.94;;;8.77;57.30
10460;BME280;54412;51.206;6.888;2023-05-03T04:30:17;102037.44;;;9.08;56.37
10460;BME280;54412;51.206;6.888;2023-05-03T04:32:43;102038.94;;;8.79;57.36
10460;BME280;54412;51.206;6.888;2023-05-03T04:35:09;102041.41;;;8.86;57.38
10460;BME280;54412;51.206;6.888;2023-05-03T04:37:37;102051.22;;;8.78;57.76
10460;BME280;54412;51.206;6.888;2023-05-03T04:40:04;102054.94;;;8.68;57.77
10460;BME280;54412;51.206;6.888;2023-05-03T04:42:37;102057.34;;;8.79;57.54
10460;BME280;54412;51.206;6.888;2023-05-03T04:45:03;102071.25;;;8.85;57.52
10460;BME280;54412;51.206;6.888;2023-05-03T04:47:32;102070.53;;;8.77;57.61
10460;BME280;54412;51.206;6.888;2023-05-03T04:49:57;102065.31;;;8.76;58.09
10460;BME280;54412;51.206;6.888;2023-05-03T04:52:24;102069.53;;;8.84;57.90
10460;BME280;54412;51.206;6.888;2023-05-03T04:54:51;102062.72;;;8.73;57.89
10460;BME280;54412;51.206;6.888;2023-05-03T04:57:17;102071.47;;;8.75;58.32
10460;BME280;54412;51.206;6.888;2023-05-03T04:59:43;102069.63;;;8.78;58.45
10460;BME280;54412;51.206;6.888;2023-05-03T05:02:09;102074.97;;;8.75;58.64
10460;BME280;54412;51.206;6.888;2023-05-03T05:04:35;102065.13;;;8.83;58.11
10460;BME280;54412;51.206;6.888;2023-05-03T05:07:00;102076.56;;;8.82;57.96
10460;BME280;54412;51.206;6.888;2023-05-03T05:09:27;102080.94;;;8.85;58.36
10460;BME280;54412;51.206;6.888;2023-05-03T05:11:55;102077.81;;;9.07;57.72
10460;BME280;54412;51.206;6.888;2023-05-03T05:14:21;102077.91;;;9.03;57.81
10460;BME280;54412;51.206;6.888;2023-05-03T05:16:47;102084.75;;;9.11;57.44
10460;BME280;54412;51.206;6.888;2023-05-03T05:19:13;102082.72;;;9.24;57.15
10460;BME280;54412;51.206;6.888;2023-05-03T05:21:39;102090.97;;;9.07;58.01
10460;BME280;54412;51.206;6.888;2023-05-03T05:24:05;102090.25;;;9.01;58.73
10460;BME280;54412;51.206;6.888;2023-05-03T05:26:31;102081.19;;;9.12;58.14
10460;BME280;54412;51.206;6.888;2023-05-03T05:28:57;102102.34;;;9.09;58.48
10460;BME280;54412;51.206;6.888;2023-05-03T05:31:22;102098.72;;;9.15;58.41
10460;BME280;54412;51.206;6.888;2023-05-03T05:33:49;102104.84;;;9.15;58.92
10460;BME280;54412;51.206;6.888;2023-05-03T05:36:15;102100.84;;;9.37;58.50
10460;BME280;54412;51.206;6.888;2023-05-03T05:38:42;102097.56;;;9.28;58.76
10460;BME280;54412;51.206;6.888;2023-05-03T05:41:07;102100.00;;;9.37;58.18
10460;BME280;54412;51.206;6.888;2023-05-03T05:43:34;102099.19;;;9.33;58.17
10460;BME280;54412;51.206;6.888;2023-05-03T05:46:00;102103.34;;;9.43;57.95
10460;BME280;54412;51.206;6.888;2023-05-03T05:48:25;102106.72;;;9.50;57.55
10460;BME280;54412;51.206;6.888;2023-05-03T05:50:51;102112.66;;;9.60;57.13
10460;BME280;54412;51.206;6.888;2023-05-03T05:53:17;102110.50;;;9.38;57.34
10460;BME280;54412;51.206;6.888;2023-05-03T05:55:42;102114.16;;;9.71;56.89
10460;BME280;54412;51.206;6.888;2023-05-03T05:58:08;102104.50;;;9.70;57.06
10460;BME280;54412;51.206;6.888;2023-05-03T06:00:36;102116.63;;;9.77;57.15
10460;BME280;54412;51.206;6.888;2023-05-03T06:03:02;102118.06;;;9.90;57.13
10460;BME280;54412;51.206;6.888;2023-05-03T06:05:27;102115.25;;;9.98;56.66
10460;BME280;54412;51.206;6.888;2023-05-03T06:07:53;102124.66;;;10.11;56.55
10460;BME280;54412;51.206;6.888;2023-05-03T06:10:18;102126.94;;;10.24;55.83
10460;BME280;54412;51.206;6.888;2023-05-03T06:12:44;102126.03;;;10.59;54.64
10460;BME280;54412;51.206;6.888;2023-05-03T06:15:10;102124.47;;;10.50;55.01
10460;BME280;54412;51.206;6.888;2023-05-03T06:17:36;102123.75;;;10.45;55.33
10460;BME280;54412;51.206;6.888;2023-05-03T06:20:01;102128.59;;;10.62;54.70
10460;BME280;54412;51.206;6.888;2023-05-03T06:22:28;102128.03;;;10.82;53.98
10460;BME280;54412;51.206;6.888;2023-05-03T06:24:55;102133.28;;;11.14;53.05
10460;BME280;54412;51.206;6.888;2023-05-03T06:27:21;102134.31;;;11.10;53.35
10460;BME280;54412;51.206;6.888;2023-05-03T06:29:47;102137.06;;;11.05;53.75
10460;BME280;54412;51.206;6.888;2023-05-03T06:32:14;102131.56;;;11.43;51.94
10460;BME280;54412;51.206;6.888;2023-05-03T06:34:40;102136.41;;;11.28;52.02
10460;BME280;54412;51.206;6.888;2023-05-03T06:37:06;102133.84;;;11.25;51.82
10460;BME280;54412;51.206;6.888;2023-05-03T06:39:31;102132.81;;;11.59;51.47
10460;BME280;54412;51.206;6.888;2023-05-03T06:41:57;102126.00;;;11.82;51.07
10460;BME280;54412;51.206;6.888;2023-05-03T06:44:22;102124.53;;;11.72;51.72
10460;BME280;54412;51.206;6.888;2023-05-03T06:46:50;102124.84;;;11.61;51.64
10460;BME280;54412;51.206;6.888;2023-05-03T06:49:15;102118.84;;;11.85;51.24
10460;BME280;54412;51.206;6.888;2023-05-03T06:51:41;102119.25;;;11.72;51.64
10460;BME280;54412;51.206;6.888;2023-05-03T06:54:07;102124.34;;;11.78;52.50
10460;BME280;54412;51.206;6.888;2023-05-03T06:56:35;102123.78;;;11.96;50.36
10460;BME280;54412;51.206;6.888;2023-05-03T06:59:02;102125.72;;;11.89;50.99
10460;BME280;54412;51.206;6.888;2023-05-03T07:01:30;102123.06;;;12.17;49.77
10460;BME280;54412;51.206;6.888;2023-05-03T07:03:56;102125.59;;;12.20;49.48
10460;BME280;54412;51.206;6.888;2023-05-03T07:06:22;102126.44;;;12.22;49.50
10460;BME280;54412;51.206;6.888;2023-05-03T07:08:50;102130.72;;;12.26;49.71
10460;BME280;54412;51.206;6.888;2023-05-03T07:11:18;102127.56;;;12.41;49.49
10460;BME280;54412;51.206;6.888;2023-05-03T07:13:46;102136.75;;;12.55;49.07
10460;BME280;54412;51.206;6.888;2023-05-03T07:16:12;102126.00;;;12.60;48.34
10460;BME280;54412;51.206;6.888;2023-05-03T07:18:38;102133.94;;;12.85;48.19
10460;BME280;54412;51.206;6.888;2023-05-03T07:21:04;102139.72;;;12.96;47.42
10460;BME280;54412;51.206;6.888;2023-05-03T07:23:31;102132.78;;;12.92;48.05
10460;BME280;54412;51.206;6.888;2023-05-03T07:25:56;102127.16;;;13.01;46.76
10460;BME280;54412;51.206;6.888;2023-05-03T07:28:22;102129.94;;;12.98;47.32
10460;BME280;54412;51.206;6.888;2023-05-03T07:30:48;102123.25;;;13.35;46.17
10460;BME280;54412;51.206;6.888;2023-05-03T07:33:15;102119.47;;;13.19;44.12
10460;BME280;54412;51.206;6.888;2023-05-03T07:35:40;102108.78;;;13.21;46.03
10460;BME280;54412;51.206;6.888;2023-05-03T07:38:06;102114.56;;;13.09;46.53
10460;BME280;54412;51.206;6.888;2023-05-03T07:40:32;102109.31;;;13.30;44.83
10460;BME280;54412;51.206;6.888;2023-05-03T07:43:00;102102.31;;;13.51;44.47
10460;BME280;54412;51.206;6.888;2023-05-03T07:45:26;102103.19;;;13.51;43.79
10460;BME280;54412;51.206;6.888;2023-05-03T07:47:53;102102.06;;;13.35;44.18
10460;BME280;54412;51.206;6.888;2023-05-03T07:50:19;102097.53;;;13.60;44.06
10460;BME280;54412;51.206;6.888;2023-05-03T07:52:44;102091.81;;;13.71;43.70
10460;BME280;54412;51.206;6.888;2023-05-03T07:55:10;102092.72;;;13.48;43.45
10460;BME280;54412;51.206;6.888;2023-05-03T07:57:36;102087.72;;;13.62;44.06
10460;BME280;54412;51.206;6.888;2023-05-03T08:00:02;102094.00;;;13.60;42.22
10460;BME280;54412;51.206;6.888;2023-05-03T08:02:30;102100.81;;;13.45;41.91
10460;BME280;54412;51.206;6.888;2023-05-03T08:04:55;102097.13;;;13.02;43.28
10460;BME280;54412;51.206;6.888;2023-05-03T08:07:21;102089.34;;;13.67;42.89
10460;BME280;54412;51.206;6.888;2023-05-03T08:09:47;102096.66;;;13.82;42.15
10460;BME280;54412;51.206;6.888;2023-05-03T08:12:13;102100.31;;;14.01;43.07
10460;BME280;54412;51.206;6.888;2023-05-03T08:14:40;102096.91;;;14.19;42.43
10460;BME280;54412;51.206;6.888;2023-05-03T08:17:05;102095.16;;;14.39;42.78
10460;BME280;54412;51.206;6.888;2023-05-03T08:19:31;102081.81;;;14.61;41.68
10460;BME280;54412;51.206;6.888;2023-05-03T08:21:57;102090.31;;;14.29;41.01
10460;BME280;54412;51.206;6.888;2023-05-03T08:24:22;102093.03;;;14.27;41.50
10460;BME280;54412;51.206;6.888;2023-05-03T08:26:49;102087.69;;;14.49;41.12
10460;BME280;54412;51.206;6.888;2023-05-03T08:29:15;102087.13;;;14.61;41.71
10460;BME280;54412;51.206;6.888;2023-05-03T08:31:41;102086.31;;;14.19;41.51
10460;BME280;54412;51.206;6.888;2023-05-03T08:34:07;102084.94;;;14.50;41.06
10460;BME280;54412;51.206;6.888;2023-05-03T08:36:35;102079.88;;;14.85;40.99
10460;BME280;54412;51.206;6.888;2023-05-03T08:39:03;102078.34;;;14.99;40.64
10460;BME280;54412;51.206;6.888;2023-05-03T08:41:32;102080.56;;;15.08;40.63
10460;BME280;54412;51.206;6.888;2023-05-03T08:43:59;102077.38;;;14.82;41.01
10460;BME280;54412;51.206;6.888;2023-05-03T08:46:27;102077.72;;;15.13;40.97
10460;BME280;54412;51.206;6.888;2023-05-03T08:48:54;102074.75;;;15.19;40.72
10460;BME280;54412;51.206;6.888;2023-05-03T08:51:22;102070.97;;;15.24;41.00
10460;BME280;54412;51.206;6.888;2023-05-03T08:53:49;102059.91;;;15.33;41.54
10460;BME280;54412;51.206;6.888;2023-05-03T08:56:32;102066.84;;;15.56;40.98
10460;BME280;54412;51.206;6.888;2023-05-03T08:58:59;102078.78;;;15.83;39.95
10460;BME280;54412;51.206;6.888;2023-05-03T09:01:34;102077.94;;;15.27;38.40
10460;BME280;54412;51.206;6.888;2023-05-03T09:04:00;102075.94;;;14.75;39.51
10460;BME280;54412;51.206;6.888;2023-05-03T09:06:26;102069.63;;;14.96;40.25
10460;BME280;54412;51.206;6.888;2023-05-03T09:08:53;102069.50;;;15.56;39.48
10460;BME280;54412;51.206;6.888;2023-05-03T09:11:29;102076.78;;;15.32;38.17
10460;BME280;54412;51.206;6.888;2023-05-03T09:14:16;102067.94;;;15.32;39.66
10460;BME280;54412;51.206;6.888;2023-05-03T09:16:44;102063.44;;;15.34;39.60
10460;BME280;54412;51.206;6.888;2023-05-03T09:19:12;102052.63;;;15.74;39.41
10460;BME280;54412;51.206;6.888;2023-05-03T09:21:44;102059.16;;;15.86;38.95
10460;BME280;54412;51.206;6.888;2023-05-03T09:24:16;102055.69;;;15.84;38.22
10460;BME280;54412;51.206;6.888;2023-05-03T09:26:43;102050.41;;;16.01;39.83
10460;BME280;54412;51.206;6.888;2023-05-03T09:29:26;102045.97;;;16.18;39.61
10460;BME280;54412;51.206;6.888;2023-05-03T09:32:03;102051.97;;;16.39;38.95
10460;BME280;54412;51.206;6.888;2023-05-03T09:34:34;102054.13;;;16.49;38.72
10460;BME280;54412;51.206;6.888;2023-05-03T09:37:00;102043.84;;;16.42;38.73
10460;BME280;54412;51.206;6.888;2023-05-03T09:39:26;102040.81;;;16.49;38.58
10460;BME280;54412;51.206;6.888;2023-05-03T09:41:52;102038.03;;;16.68;38.67
10460;BME280;54412;51.206;6.888;2023-05-03T09:44:18;102042.69;;;16.47;37.57
10460;BME280;54412;51.206;6.888;2023-05-03T09:47:06;102046.25;;;16.46;37.40
10460;BME280;54412;51.206;6.888;2023-05-03T09:49:32;102043.31;;;16.52;37.83
10460;BME280;54412;51.206;6.888;2023-05-03T09:52:01;102038.34;;;16.45;37.95
10460;BME280;54412;51.206;6.888;2023-05-03T09:54:28;102034.06;;;16.59;37.73
10460;BME280;54412;51.206;6.888;2023-05-03T09:56:57;102033.00;;;16.79;37.12
10460;BME280;54412;51.206;6.888;2023-05-03T09:59:23;102033.06;;;17.10;37.96
10460;BME280;54412;51.206;6.888;2023-05-03T10:01:55;102035.03;;;17.22;37.51
10460;BME280;54412;51.206;6.888;2023-05-03T10:04:24;102018.72;;;17.28;37.38
10460;BME280;54412;51.206;6.888;2023-05-03T10:06:53;102016.91;;;17.60;36.79
10460;BME280;54412;51.206;6.888;2023-05-03T10:09:42;102014.94;;;17.79;36.05
10460;BME280;54412;51.206;6.888;2023-05-03T10:12:11;102011.25;;;17.66;36.65
10460;BME280;54412;51.206;6.888;2023-05-03T10:14:40;102015.13;;;17.60;36.23
10460;BME280;54412;51.206;6.888;2023-05-03T10:17:15;102011.25;;;17.66;36.17
10460;BME280;54412;51.206;6.888;2023-05-03T10:25:33;101999.56;;;18.12;36.15
10460;BME280;54412;51.206;6.888;2023-05-03T10:28:08;101985.78;;;18.34;35.69
10460;BME280;54412;51.206;6.888;2023-05-03T10:30:39;101989.22;;;18.36;35.85
10460;BME280;54412;51.206;6.888;2023-05-03T10:35:52;101978.31;;;18.11;35.92
10460;BME280;54412;51.206;6.888;2023-05-03T10:38:25;101979.25;;;18.53;36.80
10460;BME280;54412;51.206;6.888;2023-05-03T10:40:52;101986.75;;;18.33;35.73
10460;BME280;54412;51.206;6.888;2023-05-03T10:46:02;101976.22;;;18.45;35.92
10460;BME280;54412;51.206;6.888;2023-05-03T10:48:29;101982.13;;;18.64;35.76
10460;BME280;54412;51.206;6.888;2023-05-03T10:50:56;101982.41;;;18.74;36.07
10460;BME280;54412;51.206;6.888;2023-05-03T10:53:40;101993.00;;;18.18;34.60
10460;BME280;54412;51.206;6.888;2023-05-03T10:56:10;101979.16;;;18.41;36.40
10460;BME280;54412;51.206;6.888;2023-05-03T10:58:48;101989.88;;;18.83;35.70
10460;BME280;54412;51.206;6.888;2023-05-03T11:01:17;101972.56;;;19.03;36.31
10460;BME280;54412;51.206;6.888;2023-05-03T11:03:53;101981.78;;;19.11;35.67
10460;BME280;54412;51.206;6.888;2023-05-03T11:08:56;101973.63;;;19.27;34.98
10460;BME280;54412;51.206;6.888;2023-05-03T11:11:22;101970.53;;;19.06;35.33
10460;BME280;54412;51.206;6.888;2023-05-03T11:13:50;101966.13;;;19.33;34.82
10460;BME280;54412;51.206;6.888;2023-05-03T11:16:16;101968.09;;;19.30;33.83
10460;BME280;54412;51.206;6.888;2023-05-03T11:18:42;101958.84;;;19.35;35.37
10460;BME280;54412;51.206;6.888;2023-05-03T11:21:10;101965.19;;;19.47;34.80
10460;BME280;54412;51.206;6.888;2023-05-03T11:23:38;101954.31;;;19.50;34.16
10460;BME280;54412;51.206;6.888;2023-05-03T11:26:07;101947.53;;;19.44;34.74
10460;BME280;54412;51.206;6.888;2023-05-03T11:28:36;101950.59;;;19.65;35.18
10460;BME280;54412;51.206;6.888;2023-05-03T11:31:03;101941.59;;;19.53;35.55
10460;BME280;54412;51.206;6.888;2023-05-03T11:33:31;101933.53;;;19.93;34.97
10460;BME280;54412;51.206;6.888;2023-05-03T11:36:01;101938.88;;;19.80;36.17
10460;BME280;54412;51.206;6.888;2023-05-03T11:38:36;101938.38;;;19.61;35.21
10460;BME280;54412;51.206;6.888;2023-05-03T11:41:16;101939.03;;;19.64;35.62
10460;BME280;54412;51.206;6.888;2023-05-03T11:43:47;101939.38;;;19.72;35.13
10460;BME280;54412;51.206;6.888;2023-05-03T11:46:27;101938.19;;;19.64;33.84
10460;BME280;54412;51.206;6.888;2023-05-03T11:48:56;101932.09;;;19.35;34.95
10460;BME280;54412;51.206;6.888;2023-05-03T11:51:23;101930.28;;;19.62;34.51
10460;BME280;54412;51.206;6.888;2023-05-03T11:53:50;101931.16;;;19.88;34.89
10460;BME280;54412;51.206;6.888;2023-05-03T11:56:17;101922.00;;;20.17;34.60
10460;BME280;54412;51.206;6.888;2023-05-03T11:58:56;101919.03;;;20.34;34.22
10460;BME280;54412;51.206;6.888;2023-05-03T12:01:27;101928.75;;;20.48;33.29
10460;BME280;54412;51.206;6.888;2023-05-03T12:03:56;101928.00;;;20.46;33.18
10460;BME280;54412;51.206;6.888;2023-05-03T12:06:22;101924.38;;;20.34;33.87
10460;BME280;54412;51.206;6.888;2023-05-03T12:08:49;101921.47;;;20.37;34.12
10460;BME280;54412;51.206;6.888;2023-05-03T12:11:15;101924.78;;;20.53;34.39
10460;BME280;54412;51.206;6.888;2023-05-03T12:13:41;101924.75;;;20.78;33.68
10460;BME280;54412;51.206;6.888;2023-05-03T12:16:09;101921.72;;;20.96;32.71
10460;BME280;54412;51.206;6.888;2023-05-03T12:18:49;101922.63;;;20.58;33.77
10460;BME280;54412;51.206;6.888;2023-05-03T12:21:16;101918.91;;;20.48;33.35
10460;BME280;54412;51.206;6.888;2023-05-03T12:23:42;101926.94;;;20.61;33.14
10460;BME280;54412;51.206;6.888;2023-05-03T12:26:07;101907.75;;;20.91;34.07
10460;BME280;54412;51.206;6.888;2023-05-03T12:28:33;101915.16;;;21.00;33.92
10460;BME280;54412;51.206;6.888;2023-05-03T12:30:59;101913.44;;;20.99;34.02
10460;BME280;54412;51.206;6.888;2023-05-03T12:33:25;101913.75;;;21.30;33.14
10460;BME280;54412;51.206;6.888;2023-05-03T12:35:51;101902.88;;;20.85;32.91
10460;BME280;54412;51.206;6.888;2023-05-03T12:38:17;101899.44;;;21.19;32.33
10460;BME280;54412;51.206;6.888;2023-05-03T12:40:43;101892.97;;;21.21;31.91
10460;BME280;54412;51.206;6.888;2023-05-03T12:43:09;101899.47;;;20.70;32.71
10460;BME280;54412;51.206;6.888;2023-05-03T12:45:35;101898.28;;;21.10;32.59
10460;BME280;54412;51.206;6.888;2023-05-03T12:48:02;101890.41;;;21.43;33.24
10460;BME280;54412;51.206;6.888;2023-05-03T12:50:28;101885.09;;;21.31;32.02
10460;BME280;54412;51.206;6.888;2023-05-03T12:52:54;101871.38;;;21.23;32.15
10460;BME280;54412;51.206;6.888;2023-05-03T12:55:20;101879.72;;;21.07;32.09
10460;BME280;54412;51.206;6.888;2023-05-03T12:57:46;101877.97;;;21.19;31.75
10460;BME280;54412;51.206;6.888;2023-05-03T13:00:12;101875.00;;;21.11;32.09
10460;BME280;54412;51.206;6.888;2023-05-03T13:02:38;101865.19;;;21.22;32.08
10460;BME280;54412;51.206;6.888;2023-05-03T13:05:04;101863.19;;;21.37;32.03
10460;BME280;54412;51.206;6.888;2023-05-03T13:07:31;101866.94;;;21.11;31.51
10460;BME280;54412;51.206;6.888;2023-05-03T13:09:58;101862.00;;;21.17;31.75
10460;BME280;54412;51.206;6.888;2023-05-03T13:12:24;101858.56;;;21.15;31.93
10460;BME280;54412;51.206;6.888;2023-05-03T13:14:52;101851.00;;;21.44;31.84
10460;BME280;54412;51.206;6.888;2023-05-03T13:17:20;101848.75;;;20.91;31.80
10460;BME280;54412;51.206;6.888;2023-05-03T13:19:47;101844.47;;;21.24;32.48